createdAt,value
2022-09-23T00:02:18.352Z,100846.80
2022-09-23T00:04:51.214Z,100846.00
2022-09-23T00:07:23.889Z,100847.00
2022-09-23T00:09:56.769Z,100848.60
2022-09-23T00:12:29.576Z,100840.80
2022-09-23T00:15:02.334Z,100848.40
2022-09-23T00:17:35.751Z,100849.00
2022-09-23T00:20:11.056Z,100852.80
2022-09-23T00:22:43.855Z,100851.40
2022-09-23T00:25:16.755Z,100845.20
2022-09-23T00:27:49.583Z,100842.40
2022-09-23T00:30:23.722Z,100835.00
2022-09-23T00:32:57.134Z,100832.20
2022-09-23T00:35:30.023Z,100832.00
2022-09-23T00:38:02.670Z,100833.80
2022-09-23T00:40:36.585Z,100837.00
2022-09-23T00:43:11.620Z,100837.60
2022-09-23T00:45:48.987Z,100836.00
2022-09-23T00:48:23.516Z,100832.60
2022-09-23T00:50:57.400Z,100828.80
2022-09-23T00:53:30.869Z,100827.20
2022-09-23T00:56:07.534Z,100820.00
2022-09-23T00:58:44.491Z,100821.80
2022-09-23T01:01:17.566Z,100817.40
2022-09-23T01:03:50.574Z,100817.00
2022-09-23T01:06:23.710Z,100814.60
2022-09-23T01:08:57.424Z,100809.60
2022-09-23T01:11:44.509Z,100810.60
2022-09-23T01:14:38.906Z,100808.80
2022-09-23T01:17:25.088Z,100811.60
2022-09-23T01:20:40.273Z,100817.60
2022-09-23T01:23:35.064Z,100816.80
2022-09-23T01:26:34.986Z,100809.20
2022-09-23T01:29:33.494Z,100807.20
2022-09-23T01:32:12.602Z,100803.60
2022-09-23T01:34:52.419Z,100805.80
2022-09-23T01:37:33.218Z,100802.00
2022-09-23T01:40:12.808Z,100800.00
2022-09-23T01:42:52.400Z,100796.40
2022-09-23T01:45:34.227Z,100794.80
2022-09-23T01:48:14.155Z,100795.20
2022-09-23T01:50:58.810Z,100792.40
2022-09-23T01:53:40.705Z,100788.20
2022-09-23T01:56:21.983Z,100789.40
2022-09-23T01:59:02.392Z,100796.40
2022-09-23T02:01:44.720Z,100792.20
2022-09-23T02:04:23.956Z,100790.20
2022-09-23T02:07:01.086Z,100791.80
2022-09-23T02:09:38.561Z,100793.40
2022-09-23T02:12:17.001Z,100790.60
2022-09-23T02:15:01.254Z,100792.20
2022-09-23T02:17:39.851Z,100792.40
2022-09-23T02:20:20.921Z,100793.80
2022-09-23T02:23:02.104Z,100792.40
2022-09-23T02:25:43.383Z,100791.20
2022-09-23T02:28:22.214Z,100789.00
2022-09-23T02:31:15.883Z,100792.80
2022-09-23T02:33:56.557Z,100782.20
2022-09-23T02:36:33.700Z,100788.40
2022-09-23T02:39:12.771Z,100780.60
2022-09-23T02:41:57.120Z,100777.40
2022-09-23T02:44:29.997Z,100777.60
2022-09-23T02:47:02.882Z,100779.20
2022-09-23T02:49:37.390Z,100777.40
2022-09-23T02:52:14.183Z,100771.60
2022-09-23T02:54:47.063Z,100774.00
2022-09-23T02:57:20.052Z,100772.40
2022-09-23T02:59:52.938Z,100771.40
2022-09-23T03:02:51.408Z,100773.20
2022-09-23T03:05:31.782Z,100775.00
2022-09-23T03:08:25.965Z,100777.60
2022-09-23T03:11:07.207Z,100769.60
2022-09-23T03:14:04.194Z,100768.40
2022-09-23T03:16:44.989Z,100766.20
2022-09-23T03:19:28.659Z,100767.00
2022-09-23T03:22:09.880Z,100765.20
2022-09-23T03:24:45.958Z,100763.60
2022-09-23T03:27:25.831Z,100757.20
2022-09-23T03:29:59.740Z,100755.60
2022-09-23T03:32:33.446Z,100759.40
2022-09-23T03:35:11.324Z,100763.00
2022-09-23T03:37:51.056Z,100760.00
2022-09-23T03:40:29.389Z,100753.40
2022-09-23T03:43:03.526Z,100757.40
2022-09-23T03:45:37.066Z,100748.80
2022-09-23T03:48:10.312Z,100745.40
2022-09-23T03:50:42.948Z,100747.00
2022-09-23T03:53:15.628Z,100741.00
2022-09-23T03:55:48.659Z,100737.80
2022-09-23T03:58:21.599Z,100743.20
2022-09-23T04:00:55.033Z,100741.80
2022-09-23T04:03:28.356Z,100742.00
2022-09-23T04:06:01.077Z,100740.80
2022-09-23T04:08:33.666Z,100741.20
2022-09-23T04:11:06.891Z,100740.00
2022-09-23T04:13:39.626Z,100741.00
2022-09-23T04:16:12.696Z,100740.20
2022-09-23T04:18:45.598Z,100739.60
2022-09-23T04:21:18.654Z,100736.40
2022-09-23T04:23:51.694Z,100741.20
2022-09-23T04:26:24.790Z,100739.60
2022-09-23T04:28:58.547Z,100740.60
2022-09-23T04:31:31.394Z,100743.40
2022-09-23T04:34:04.135Z,100741.60
2022-09-23T04:36:36.916Z,100746.00
2022-09-23T04:39:10.807Z,100741.80
2022-09-23T04:41:43.607Z,100742.80
2022-09-23T04:44:17.878Z,100743.60
2022-09-23T04:46:50.731Z,100750.40
2022-09-23T04:49:23.904Z,100748.20
2022-09-23T04:51:56.787Z,100751.20
2022-09-23T04:54:29.772Z,100752.20
2022-09-23T04:57:02.450Z,100750.20
2022-09-23T04:59:35.246Z,100750.20
2022-09-23T05:02:08.049Z,100754.40
2022-09-23T05:04:42.131Z,100752.00
2022-09-23T05:07:19.421Z,100749.40
2022-09-23T05:09:52.836Z,100746.40
2022-09-23T05:12:25.604Z,100752.80
2022-09-23T05:14:58.383Z,100754.00
2022-09-23T05:17:31.572Z,100749.80
2022-09-23T05:20:04.960Z,100746.80
2022-09-23T05:22:37.750Z,100752.40
2022-09-23T05:25:12.226Z,100752.60
2022-09-23T05:27:44.964Z,100754.60
2022-09-23T05:30:18.155Z,100753.40
2022-09-23T05:32:51.310Z,100752.40
2022-09-23T05:35:24.121Z,100759.20
2022-09-23T05:37:56.805Z,100757.20
2022-09-23T05:40:29.813Z,100758.00
2022-09-23T05:43:02.366Z,100760.40
2022-09-23T05:45:36.068Z,100756.40
2022-09-23T05:48:09.172Z,100754.20
2022-09-23T05:50:41.843Z,100758.80
2022-09-23T05:53:14.384Z,100757.40
2022-09-23T05:55:47.607Z,100761.20
2022-09-23T05:58:20.186Z,100760.40
2022-09-23T06:00:55.944Z,100759.80
2022-09-23T06:03:29.846Z,100756.00
2022-09-23T06:06:04.783Z,100759.00
2022-09-23T06:08:37.978Z,100756.20
2022-09-23T06:11:12.292Z,100753.80
2022-09-23T06:13:45.291Z,100755.20
2022-09-23T06:16:18.968Z,100756.60
2022-09-23T06:18:51.760Z,100755.20
2022-09-23T06:21:24.792Z,100757.40
2022-09-23T06:24:00.401Z,100757.80
2022-09-23T06:26:35.432Z,100758.00
2022-09-23T06:29:12.758Z,100759.60
2022-09-23T06:31:46.358Z,100757.40
2022-09-23T06:34:19.770Z,100755.80
2022-09-23T06:36:54.078Z,100763.00
2022-09-23T06:39:26.926Z,100761.40
2022-09-23T06:41:59.704Z,100759.80
2022-09-23T06:44:33.108Z,100755.60
2022-09-23T06:47:06.192Z,100762.60
2022-09-23T06:49:39.083Z,100761.60
2022-09-23T06:52:11.978Z,100762.60
2022-09-23T06:54:44.849Z,100765.40
2022-09-23T06:57:17.744Z,100766.80
2022-09-23T06:59:50.515Z,100765.60
2022-09-23T07:02:23.324Z,100769.40
2022-09-23T07:04:57.282Z,100763.40
2022-09-23T07:07:32.894Z,100767.40
2022-09-23T07:10:06.718Z,100764.40
2022-09-23T07:12:39.547Z,100766.80
2022-09-23T07:15:15.715Z,100768.20
2022-09-23T07:17:48.388Z,100769.20
2022-09-23T07:20:21.271Z,100765.00
2022-09-23T07:22:55.423Z,100766.20
2022-09-23T07:25:29.502Z,100772.00
2022-09-23T07:28:02.507Z,100763.60
2022-09-23T07:30:37.309Z,100760.60
2022-09-23T07:33:25.101Z,100767.40
2022-09-23T07:35:59.644Z,100766.80
2022-09-23T07:38:32.665Z,100760.40
2022-09-23T07:41:12.324Z,100757.80
2022-09-23T07:43:49.144Z,100761.00
2022-09-23T07:46:22.249Z,100756.20
2022-09-23T07:48:55.274Z,100761.40
2022-09-23T07:51:35.709Z,100758.40
2022-09-23T07:54:13.722Z,100759.20
2022-09-23T07:56:47.504Z,100755.20
2022-09-23T07:59:22.163Z,100756.60
2022-09-23T08:01:56.815Z,100752.60
2022-09-23T08:04:32.022Z,100747.40
2022-09-23T08:07:08.053Z,100743.80
2022-09-23T08:09:43.636Z,100738.60
2022-09-23T08:12:20.204Z,100736.40
2022-09-23T08:14:52.883Z,100730.40
2022-09-23T08:17:25.773Z,100731.20
2022-09-23T08:19:58.368Z,100728.40
2022-09-23T08:22:31.225Z,100720.00
2022-09-23T08:25:04.796Z,100712.40
2022-09-23T08:27:39.406Z,100713.60
2022-09-23T08:30:17.149Z,100711.40
2022-09-23T08:32:53.005Z,100715.60
2022-09-23T08:35:26.194Z,100717.80
2022-09-23T08:37:59.182Z,100713.20
2022-09-23T08:40:34.395Z,100711.40
2022-09-23T08:43:16.115Z,100711.40
2022-09-23T08:45:51.426Z,100709.40
2022-09-23T08:48:29.767Z,100708.40
2022-09-23T08:51:06.273Z,100709.60
2022-09-23T08:53:40.654Z,100713.40
2022-09-23T08:56:18.501Z,100713.40
2022-09-23T08:59:03.236Z,100713.60
2022-09-23T09:01:43.353Z,100713.20
2022-09-23T09:04:21.687Z,100708.40
2022-09-23T09:07:12.328Z,100703.80
2022-09-23T09:09:56.442Z,100709.00
2022-09-23T09:12:33.928Z,100709.40
2022-09-23T09:15:15.405Z,100705.40
2022-09-23T09:18:01.454Z,100705.00
2022-09-23T09:20:42.990Z,100706.20
2022-09-23T09:23:24.469Z,100706.80
2022-09-23T09:26:01.875Z,100707.60
2022-09-23T09:28:43.969Z,100715.00
2022-09-23T09:31:32.167Z,100710.40
2022-09-23T09:34:12.266Z,100705.00
2022-09-23T09:36:53.344Z,100702.40
2022-09-23T09:39:26.462Z,100702.80
2022-09-23T09:42:00.764Z,100710.80
2022-09-23T09:44:41.728Z,100709.00
2022-09-23T09:47:28.611Z,100711.60
2022-09-23T09:50:09.210Z,100713.40
2022-09-23T09:52:43.488Z,100706.80
2022-09-23T09:55:30.337Z,100702.20
2022-09-23T09:58:05.997Z,100701.60
2022-09-23T10:00:47.994Z,100702.80
2022-09-23T10:03:42.337Z,100706.60
2022-09-23T10:06:28.074Z,100706.60
2022-09-23T10:09:17.215Z,100694.20
2022-09-23T10:12:16.076Z,100692.20
2022-09-23T10:14:51.811Z,100701.20
2022-09-23T10:17:34.672Z,100700.20
2022-09-23T10:20:16.373Z,100703.80
2022-09-23T10:22:49.533Z,100703.20
2022-09-23T10:25:26.912Z,100697.20
2022-09-23T10:27:59.595Z,100689.60
2022-09-23T10:30:32.716Z,100684.80
2022-09-23T10:33:26.478Z,100684.20
2022-09-23T10:36:00.604Z,100679.60
2022-09-23T10:38:33.512Z,100674.20
2022-09-23T10:41:31.650Z,100678.40
2022-09-23T10:44:37.173Z,100675.40
2022-09-23T10:47:21.126Z,100684.40
2022-09-23T10:50:16.204Z,100682.20
2022-09-23T10:53:10.414Z,100677.80
2022-09-23T10:56:07.585Z,100665.40
2022-09-23T10:59:24.359Z,100661.40
2022-09-23T11:02:08.444Z,100653.80
2022-09-23T11:05:16.582Z,100651.00
2022-09-23T11:07:57.695Z,100658.20
2022-09-23T11:10:56.013Z,100656.60
2022-09-23T11:13:44.306Z,100656.00
2022-09-23T11:16:33.314Z,100646.40
2022-09-23T11:19:23.674Z,100647.20
2022-09-23T11:22:16.362Z,100641.60
2022-09-23T11:25:18.658Z,100637.80
2022-09-23T11:28:20.099Z,100648.00
2022-09-23T11:31:02.169Z,100640.00
2022-09-23T11:33:48.347Z,100634.20
2022-09-23T11:36:33.971Z,100623.40
2022-09-23T11:39:14.130Z,100619.00
2022-09-23T11:41:48.066Z,100618.80
2022-09-23T11:44:27.995Z,100617.60
2022-09-23T11:47:08.183Z,100614.00
2022-09-23T11:49:48.509Z,100614.00
2022-09-23T11:52:27.073Z,100612.40
2022-09-23T11:55:18.736Z,100620.80
2022-09-23T11:57:57.452Z,100617.60
2022-09-23T12:00:36.412Z,100617.60
2022-09-23T12:03:19.125Z,100614.40
2022-09-23T12:06:00.495Z,100614.00
2022-09-23T12:08:37.172Z,100611.00
2022-09-23T12:11:23.523Z,100599.20
2022-09-23T12:14:08.860Z,100592.40
2022-09-23T12:17:05.990Z,100594.60
2022-09-23T12:20:01.120Z,100586.80
2022-09-23T12:22:54.042Z,100590.00
2022-09-23T12:25:46.712Z,100584.80
2022-09-23T12:28:26.453Z,100589.40
2022-09-23T12:31:03.339Z,100595.20
2022-09-23T12:33:39.051Z,100593.40
2022-09-23T12:36:13.854Z,100590.20
2022-09-23T12:38:54.468Z,100584.20
2022-09-23T12:41:35.779Z,100587.20
2022-09-23T12:44:35.716Z,100590.20
2022-09-23T12:47:40.515Z,100577.00
2022-09-23T12:50:52.939Z,100581.80
2022-09-23T12:54:27.158Z,100579.20
2022-09-23T12:57:14.164Z,100574.80
2022-09-23T13:00:15.722Z,100571.80
2022-09-23T13:03:17.179Z,100570.00
2022-09-23T13:06:15.967Z,100570.60
2022-09-23T13:08:50.749Z,100566.20
2022-09-23T13:11:27.809Z,100560.20
2022-09-23T13:14:03.641Z,100552.60
2022-09-23T13:16:44.064Z,100546.60
2022-09-23T13:19:58.761Z,100532.40
2022-09-23T13:23:20.346Z,100526.40
2022-09-23T13:25:55.200Z,100515.80
2022-09-23T13:28:41.040Z,100512.60
2022-09-23T13:31:21.258Z,100506.00
2022-09-23T13:34:01.965Z,100508.00
2022-09-23T13:36:46.694Z,100509.80
2022-09-23T13:39:26.077Z,100503.80
2022-09-23T13:42:04.898Z,100501.40
2022-09-23T13:44:41.608Z,100499.20
2022-09-23T13:47:18.186Z,100495.80
2022-09-23T13:49:51.616Z,100507.00
2022-09-23T13:52:30.017Z,100495.40
2022-09-23T13:55:02.756Z,100499.80
2022-09-23T13:57:37.055Z,100498.40
2022-09-23T14:00:23.458Z,100489.40
2022-09-23T14:02:56.298Z,100492.60
2022-09-23T14:05:35.672Z,100489.80
2022-09-23T14:08:09.133Z,100487.40
2022-09-23T14:10:43.207Z,100483.60
2022-09-23T14:13:26.096Z,100483.00
2022-09-23T14:16:03.196Z,100477.80
2022-09-23T14:18:44.329Z,100484.40
2022-09-23T14:24:18.950Z,100484.80
2022-09-23T14:26:57.108Z,100479.60
2022-09-23T14:29:33.229Z,100485.60
2022-09-23T14:32:12.899Z,100484.20
2022-09-23T14:34:53.858Z,100477.80
2022-09-23T14:37:52.968Z,100478.60
2022-09-23T14:40:30.042Z,100473.80
2022-09-23T14:43:08.704Z,100467.60
2022-09-23T14:45:46.689Z,100462.80
2022-09-23T14:48:24.595Z,100456.60
2022-09-23T14:51:01.262Z,100450.40
2022-09-23T14:53:43.590Z,100455.20
2022-09-23T14:56:45.523Z,100450.00
2022-09-23T14:59:33.278Z,100447.60
2022-09-23T15:02:36.782Z,100447.40
2022-09-23T15:05:19.817Z,100442.20
2022-09-23T15:07:54.408Z,100436.60
2022-09-23T15:10:31.202Z,100432.80
2022-09-23T15:13:14.024Z,100432.60
2022-09-23T15:15:47.520Z,100430.00
2022-09-23T15:18:25.672Z,100432.40
2022-09-23T15:21:02.800Z,100435.60
2022-09-23T15:23:48.681Z,100430.20
2022-09-23T15:26:24.212Z,100433.60
2022-09-23T15:29:00.296Z,100428.20
2022-09-23T15:31:33.164Z,100428.80
2022-09-23T15:34:06.558Z,100431.20
2022-09-23T15:36:40.275Z,100423.60
2022-09-23T15:39:15.590Z,100417.80
2022-09-23T15:41:48.709Z,100416.00
2022-09-23T15:44:21.867Z,100420.20
2022-09-23T15:46:56.115Z,100413.80
2022-09-23T15:49:34.020Z,100413.80
2022-09-23T15:52:12.534Z,100413.00
2022-09-23T15:54:46.049Z,100416.80
2022-09-23T15:57:19.530Z,100415.20
2022-09-23T15:59:52.314Z,100410.00
2022-09-23T16:02:26.699Z,100413.00
2022-09-23T16:05:03.102Z,100409.20
2022-09-23T16:07:36.701Z,100412.00
2022-09-23T16:10:11.001Z,100412.40
2022-09-23T16:12:44.018Z,100412.00
2022-09-23T16:15:20.584Z,100409.40
2022-09-23T16:17:55.583Z,100410.40
2022-09-23T16:20:29.884Z,100408.60
2022-09-23T16:23:07.018Z,100410.20
2022-09-23T16:25:40.827Z,100408.20
2022-09-23T16:28:14.732Z,100411.40
2022-09-23T16:30:47.414Z,100409.80
2022-09-23T16:33:20.089Z,100411.20
2022-09-23T16:35:53.209Z,100409.00
2022-09-23T16:38:25.793Z,100414.80
2022-09-23T16:41:00.920Z,100413.40
2022-09-23T16:43:39.806Z,100417.20
2022-09-23T16:46:14.716Z,100415.00
2022-09-23T16:48:52.408Z,100415.00
2022-09-23T16:51:28.925Z,100415.00
2022-09-23T16:54:02.110Z,100406.80
2022-09-23T16:56:35.427Z,100409.60
2022-09-23T16:59:08.617Z,100411.00
2022-09-23T17:01:59.386Z,100410.80
2022-09-23T17:04:32.596Z,100409.00
2022-09-23T17:07:05.434Z,100405.40
2022-09-23T17:09:39.492Z,100405.60
2022-09-23T17:12:21.414Z,100405.60
2022-09-23T17:14:54.390Z,100403.80
2022-09-23T17:17:28.698Z,100404.60
2022-09-23T17:20:01.473Z,100404.40
2022-09-23T17:22:35.841Z,100400.40
2022-09-23T17:25:10.573Z,100401.20
2022-09-23T17:27:43.303Z,100399.60
2022-09-23T17:30:17.216Z,100397.40
2022-09-23T17:32:49.993Z,100400.00
2022-09-23T17:35:23.102Z,100395.00
2022-09-23T17:37:55.967Z,100391.40
2022-09-23T17:40:28.861Z,100390.20
2022-09-23T17:43:01.735Z,100392.40
2022-09-23T17:45:36.950Z,100392.20
2022-09-23T17:48:09.657Z,100395.60
2022-09-23T17:50:42.339Z,100394.80
2022-09-23T17:53:17.078Z,100389.40
2022-09-23T17:55:59.250Z,100387.80
2022-09-23T17:58:35.201Z,100399.00
2022-09-23T18:01:12.215Z,100403.80
2022-09-23T18:03:45.488Z,100397.40
2022-09-23T18:06:22.376Z,100394.20
2022-09-23T18:08:56.497Z,100391.60
2022-09-23T18:11:31.394Z,100393.00
2022-09-23T18:14:07.893Z,100392.80
2022-09-23T18:16:44.193Z,100390.00
2022-09-23T18:19:19.630Z,100396.20
2022-09-23T18:21:54.719Z,100395.80
2022-09-23T18:24:32.768Z,100400.60
2022-09-23T18:27:07.615Z,100400.80
2022-09-23T18:29:40.468Z,100396.00
2022-09-23T18:32:14.364Z,100398.60
2022-09-23T18:34:47.567Z,100398.40
2022-09-23T18:37:20.417Z,100398.00
2022-09-23T18:39:53.123Z,100391.00
2022-09-23T18:42:27.282Z,100389.20
2022-09-23T18:45:00.225Z,100393.60
2022-09-23T18:47:51.333Z,100391.00
2022-09-23T18:50:43.778Z,100391.40
2022-09-23T18:53:16.662Z,100390.40
2022-09-23T18:55:49.955Z,100384.60
2022-09-23T18:58:24.486Z,100391.40
2022-09-23T19:01:03.074Z,100392.20
2022-09-23T19:03:35.880Z,100393.40
2022-09-23T19:06:12.048Z,100387.40
2022-09-23T19:08:46.343Z,100386.00
2022-09-23T19:11:19.245Z,100383.20
2022-09-23T19:13:55.984Z,100379.40
2022-09-23T19:16:32.007Z,100377.60
2022-09-23T19:19:06.236Z,100376.20
2022-09-23T19:21:39.283Z,100371.80
2022-09-23T19:24:16.315Z,100375.60
2022-09-23T19:26:50.516Z,100370.80
2022-09-23T19:29:25.111Z,100369.00
2022-09-23T19:31:59.821Z,100371.00
2022-09-23T19:34:34.969Z,100365.60
2022-09-23T19:37:07.677Z,100368.20
2022-09-23T19:39:41.149Z,100365.20
2022-09-23T19:42:14.094Z,100362.40
2022-09-23T19:44:46.818Z,100363.40
2022-09-23T19:47:20.010Z,100362.00
2022-09-23T19:49:53.026Z,100367.80
2022-09-23T19:52:26.397Z,100368.80
2022-09-23T19:54:59.825Z,100372.40
2022-09-23T19:57:34.412Z,100376.00
2022-09-23T20:00:09.413Z,100373.00
2022-09-23T20:02:45.572Z,100368.20
2022-09-23T20:05:20.276Z,100367.60
2022-09-23T20:07:53.649Z,100366.80
2022-09-23T20:10:27.344Z,100365.20
2022-09-23T20:13:00.967Z,100364.60
2022-09-23T20:15:33.721Z,100361.40
2022-09-23T20:18:06.912Z,100359.80
2022-09-23T20:20:39.795Z,100356.60
2022-09-23T20:23:12.883Z,100355.20
2022-09-23T20:26:03.585Z,100359.40
2022-09-23T20:28:34.729Z,100359.40
2022-09-23T20:31:07.779Z,100362.80
2022-09-23T20:33:41.729Z,100357.40
2022-09-23T20:36:15.842Z,100354.40
2022-09-23T20:38:48.644Z,100354.00
2022-09-23T20:41:21.413Z,100347.20
2022-09-23T20:43:59.723Z,100349.60
2022-09-23T20:46:32.899Z,100348.00
2022-09-23T20:49:08.162Z,100345.60
2022-09-23T20:51:41.418Z,100346.00
2022-09-23T20:54:14.171Z,100345.00
2022-09-23T20:56:48.219Z,100348.60
2022-09-23T20:59:22.250Z,100345.60
2022-09-23T21:01:58.722Z,100343.40
2022-09-23T21:04:31.554Z,100338.40
2022-09-23T21:07:04.402Z,100337.20
2022-09-23T21:09:37.277Z,100330.60
2022-09-23T21:12:11.569Z,100332.80
2022-09-23T21:14:44.579Z,100337.40
2022-09-23T21:17:17.672Z,100343.20
2022-09-23T21:19:50.864Z,100343.80
2022-09-23T21:22:23.470Z,100339.40
2022-09-23T21:27:54.774Z,100340.20
2022-09-23T21:30:27.512Z,100341.00
2022-09-23T21:33:02.321Z,100346.40
2022-09-23T21:35:34.998Z,100338.60
2022-09-23T21:38:07.686Z,100343.80
2022-09-23T21:40:58.691Z,100345.60
2022-09-23T21:43:34.754Z,100346.80
2022-09-23T21:46:10.530Z,100349.00
2022-09-23T21:48:44.813Z,100344.20
2022-09-23T21:51:20.668Z,100346.00
2022-09-23T21:53:54.861Z,100349.20
2022-09-23T21:56:29.616Z,100351.60
2022-09-23T21:59:02.804Z,100347.60
2022-09-23T22:01:38.388Z,100340.80
2022-09-23T22:04:17.508Z,100337.60
2022-09-23T22:06:50.884Z,100337.40
2022-09-23T22:09:24.620Z,100336.00
2022-09-23T22:12:08.224Z,100334.80
2022-09-23T22:14:41.225Z,100327.60
2022-09-23T22:17:14.988Z,100319.80
2022-09-23T22:19:47.790Z,100324.20
2022-09-23T22:22:21.637Z,100318.40
2022-09-23T22:24:54.800Z,100316.80
2022-09-23T22:27:27.500Z,100315.60
2022-09-23T22:30:17.778Z,100312.60
2022-09-23T22:32:54.381Z,100310.60
2022-09-23T22:35:27.932Z,100311.00
2022-09-23T22:38:01.294Z,100310.20
2022-09-23T22:40:38.322Z,100308.60
2022-09-23T22:43:11.041Z,100314.40
2022-09-23T22:45:51.803Z,100306.00
2022-09-23T22:48:24.611Z,100310.00
2022-09-23T22:50:57.386Z,100308.20
2022-09-23T22:53:30.619Z,100306.60
2022-09-23T22:56:04.116Z,100304.60
2022-09-23T22:58:36.696Z,100297.80
2022-09-23T23:01:11.395Z,100300.20
2022-09-23T23:03:46.111Z,100296.40
2022-09-23T23:06:19.752Z,100298.20
2022-09-23T23:08:52.435Z,100299.60
2022-09-23T23:11:25.833Z,100293.20
2022-09-23T23:13:59.738Z,100291.40
2022-09-23T23:16:35.762Z,100290.80
2022-09-23T23:19:12.257Z,100289.80
2022-09-23T23:21:46.420Z,100289.80
2022-09-23T23:24:23.198Z,100293.60
2022-09-23T23:26:56.579Z,100286.20
2022-09-23T23:29:29.544Z,100286.00
2022-09-23T23:32:02.433Z,100286.40
2022-09-23T23:34:35.207Z,100280.20
2022-09-23T23:37:07.887Z,100283.00
2022-09-23T23:39:40.672Z,100281.40
2022-09-23T23:42:14.270Z,100284.60
2022-09-23T23:44:47.050Z,100279.40
2022-09-23T23:47:21.487Z,100276.00
2022-09-23T23:49:54.563Z,100280.00
2022-09-23T23:52:27.882Z,100280.60
2022-09-23T23:55:00.564Z,100278.60
2022-09-23T23:57:33.370Z,100272.20
